Springbrook, Wisconsin
Current Conditions -  °F | °C
As of 11:53 AM on Saturday 25 Oct 2014 (Local Time) from KHYR Reporting Station
Clear Clear  
Wind Chill: 55°   Ceiling: Unl
Heat Index: 55°   Visibility: 10mi
Dew Point: 31°   Wind: 12mph
Humidity: 40%   Direction: 290°WNW
Pressure: 29.94"   Gusts: 18mph
Location:  45.95°N, 91.69°W
Report Text: KHYR 251653Z AUTO 29010G16KT 260V330 10SM CLR 13/M01 A2994 RMK AO2 SLP144 T01281006
Loading
Personal Weather Stations






























Interactive Weather Map
Tropical Storm Tracking
New forecast layout! Learn more

10-Day Weather Forecast

Advertisements
Track Severe Weather on mobile